Topinabee, Michigan
Current Conditions -  °F | °C
As of 7:39 PM on Monday 24 Nov 2014 (Local Time) from KPLN Reporting Station
Light Snow Light Snow  
Wind Chill: 25°   Ceiling: 2700
Heat Index: 34°   Visibility: 3mi
Dew Point: 34°   Wind: 12mph
Humidity: 100%   Direction: 280°W
Pressure: 29.24"   Gusts: NA
Location:  45.48°N, 84.6°W
Report Text: KPLN 250039Z AUTO 28010KT 3SM -SN BR FEW008 OVC027 01/01 A2924 RMK AO2 RAE04SNB04 P0001 T00110011
Loading
Personal Weather Stations






























Interactive Weather Map New forecast layout! Learn more

10-Day Weather Forecast

Advertisements
Track Severe Weather on mobile